Douglas, GA (31534)

12:33 PM EDT on September 18, 2014 (GMT -0400)
Douglas Golf Club Area | Change Station
CLOSE
Current Station
Personal Weather Station
Location: Douglas, GA
Elevation: 224 ft
Nearby Weather Stations

Elev 224 ft 31.52 °N, 82.84 °W | Updated 3 minutes ago

Scattered Clouds
Scattered Clouds
81.9 °F
Feels Like 87 °F
N
2.0
Wind Variable Wind from West
Gusts 4.0 mph

Today
High -- | Low -- °F
--% Chance of Precip.
Yesterday
High -- | Low -- °F
Precip. -- in
7:17 AM 7:33 PM
Waning Crescent, 26% visible
Pressure 29.97 in
Visibility 10.0 miles
Clouds Scattered Clouds 3100 ft
Scattered Clouds 4100 ft
Heat Index 87 °F
Dew Point 73 °F
Humidity 75%
Rainfall 0.00 in
Snow Depth Not available.
UV 8 out of 12
Pollen 7.80 out of 12
Air Quality Not available.
Flu Activity Not available.
METAR KDQH 181615Z AUTO 36007KT 10SM SCT031 SCT041 30/20 A2997 RMK AO2

More Conditions Fewer Conditions

Pressure 29.97 in
Visibility 10.0 miles
Clouds Scattered Clouds 3100 ft
Scattered Clouds 4100 ft
Heat Index 87 °F
Dew Point 73 °F
Humidity 75%
Rainfall 0.00 in
Snow Depth Not available.
UV 8 out of 12
Pollen 7.80 out of 12
Air Quality Not available.
Flu Activity Not available.
METAR KDQH 181615Z AUTO 36007KT 10SM SCT031 SCT041 30/20 A2997 RMK AO2

More Conditions Fewer Conditions

10-Day Weather Forecast

Almanac

Astronomy

Sep. 18, 2014 Rise Set
Actual Time 7:17 AM EDT 7:33 PM EDT
Civil Twilight 6:52 AM EDT 7:57 PM EDT
Nautical Twilight 6:24 AM EDT 8:25 PM EDT
Astronomical Twilight 5:55 AM EDT 8:54 PM EDT
Moon 2:22 AM EDT 4:10 PM EDT
Length of Visible Light 13h 04m
Length of Day
12h 15m
Tomorrow will be 1m 54s shorter.
Waning Crescent, 26% of the Moon is Illuminated
Today
Waning Crescent
Sep 24
New
Oct 1
First Quarter
Oct 8
Full
Oct 15
Last Quarter

Today's Extremes

State Highs State Lows

Community

WunderPhotos

Upload Photos

1,754,394 photos uploaded!

Nearby

Snow Depth

Station Depth Elevation
No new snow has been reported.

Earthquake Activity

City Distance Mag. Time & Date
No recent earthquake activity has been reported nearby.
Minimum magnitude displayed is 2.5.

Coastal Water Temperatures

Place Temperature
No Stations Reporting

Nearby Weather Stations